Time;durP1;ratioP1;P1;durP2;ratioP2;P2;SDS_P1;SDS_P2;PMS_P1;PMS_P2;Temp;Humidity;BMP_temperature;BMP_pressure;BME280_temperature;BME280_humidity;BME280_pressure;Samples;Min_cycle;Max_cycle;Signal;HPM_P1;HPM_P2
2022/11/10 00:00:37;;;;;;;20.15;3.17;;;9.50;99.90;;;;;;5087895;28;20024;-82
2022/11/10 00:03:05;;;;;;;18.10;2.70;;;9.40;99.90;;;;;;5081300;28;20039;-82
2022/11/10 00:05:32;;;;;;;16.25;3.38;;;9.50;99.90;;;;;;5099314;27;20214;-81
2022/11/10 00:08:05;;;;;;;13.30;2.83;;;9.30;99.90;;;;;;5082527;28;20043;-81
2022/11/10 00:10:31;;;;;;;15.82;3.03;;;9.40;99.90;;;;;;5101169;28;20036;-83
2022/11/10 00:13:02;;;;;;;20.67;3.80;;;9.40;99.90;;;;;;5121011;27;20529;-80
2022/11/10 00:18:13;;;;;;;11.35;3.00;;;9.30;99.90;;;;;;5070318;28;20128;-82
2022/11/10 00:20:39;;;;;;;21.15;3.13;;;9.30;99.90;;;;;;5085526;28;20107;-81
2022/11/10 00:23:05;;;;;;;15.13;3.13;;;9.20;99.90;;;;;;5068752;28;20442;-79
2022/11/10 00:25:31;;;;;;;18.30;3.10;;;9.10;99.90;;;;;;5073888;28;20528;-84
2022/11/10 00:27:58;;;;;;;18.45;3.28;;;9.30;99.90;;;;;;5084563;28;20080;-80
2022/11/10 00:30:24;;;;;;;14.45;3.33;;;9.30;99.90;;;;;;5085472;28;20096;-85
2022/11/10 00:32:50;;;;;;;16.48;3.60;;;9.30;99.90;;;;;;5065647;28;20043;-79
2022/11/10 00:35:16;;;;;;;20.90;3.63;;;9.30;99.90;;;;;;5081598;28;20375;-81
2022/11/10 00:37:42;;;;;;;21.77;3.75;;;9.10;99.90;;;;;;5063880;28;20351;-81
2022/11/10 00:40:08;;;;;;;20.38;4.07;;;9.20;99.90;;;;;;5099762;28;20118;-81
2022/11/10 00:42:35;;;;;;;18.30;3.47;;;9.30;99.90;;;;;;5082709;28;20817;-81
2022/11/10 00:45:01;;;;;;;13.80;3.50;;;9.30;99.90;;;;;;5067795;28;20048;-81
2022/11/10 00:47:26;;;;;;;17.17;3.28;;;9.50;99.90;;;;;;5064330;28;20984;-79
2022/11/10 00:49:52;;;;;;;23.50;3.20;;;9.20;99.90;;;;;;5086461;28;20356;-82
2022/11/10 00:52:18;;;;;;;21.55;3.47;;;9.20;99.90;;;;;;5065608;28;20456;-81
2022/11/10 00:54:43;;;;;;;21.63;3.55;;;9.20;99.90;;;;;;5085899;28;20046;-82
2022/11/10 00:57:09;;;;;;;29.55;3.75;;;9.20;99.90;;;;;;5066369;28;20081;-80
2022/11/10 00:59:34;;;;;;;25.45;4.05;;;9.20;99.90;;;;;;5086366;28;20108;-79
2022/11/10 01:02:04;;;;;;;21.80;3.92;;;9.20;99.90;;;;;;5110652;27;20390;-80
2022/11/10 01:04:30;;;;;;;24.33;3.78;;;9.00;99.90;;;;;;5067864;28;20036;-81
2022/11/10 01:06:55;;;;;;;21.00;4.00;;;9.20;99.90;;;;;;5101451;28;20100;-83
2022/11/10 01:09:21;;;;;;;23.50;3.90;;;9.10;99.90;;;;;;5066038;28;20101;-82
2022/11/10 01:11:46;;;;;;;22.60;4.07;;;9.20;99.90;;;;;;5064709;28;20085;-79
2022/11/10 01:14:12;;;;;;;24.65;3.80;;;9.20;99.90;;;;;;5084432;28;20068;-81
2022/11/10 01:16:38;;;;;;;18.08;3.75;;;9.10;99.90;;;;;;5059456;28;20040;-81
2022/11/10 01:19:04;;;;;;;23.88;4.13;;;9.00;99.90;;;;;;5084444;28;20051;-81
2022/11/10 01:21:30;;;;;;;26.58;4.10;;;8.90;99.90;;;;;;5069748;28;20032;-82
2022/11/10 01:23:56;;;;;;;19.90;4.20;;;8.80;99.90;;;;;;5094925;28;20132;-80
2022/11/10 01:26:22;;;;;;;21.48;4.25;;;8.80;99.90;;;;;;5067115;28;20028;-82
2022/11/10 01:28:49;;;;;;;22.35;3.92;;;8.90;99.90;;;;;;5063312;28;20631;-81
2022/11/10 01:31:18;;;;;;;30.27;4.30;;;8.80;99.90;;;;;;5068839;28;20032;-82
2022/11/10 01:33:43;;;;;;;20.13;3.83;;;8.70;99.90;;;;;;5069887;28;20450;-81
2022/11/10 01:36:28;;;;;;;23.23;4.70;;;8.80;99.90;;;;;;5065004;28;20125;-81
2022/11/10 01:38:54;;;;;;;20.10;4.13;;;8.90;99.90;;;;;;5069494;28;20047;-82
2022/11/10 01:41:20;;;;;;;18.42;4.65;;;8.70;99.90;;;;;;5088143;28;20028;-81
2022/11/10 01:43:46;;;;;;;33.00;5.50;;;8.90;99.90;;;;;;5089271;28;20112;-82
2022/11/10 01:46:12;;;;;;;26.25;4.97;;;8.60;99.90;;;;;;5088369;28;20060;-82
2022/11/10 01:48:52;;;;;;;25.50;5.75;;;8.70;99.90;;;;;;5083223;28;20036;-79
2022/11/10 01:51:36;;;;;;;25.90;5.25;;;8.80;99.90;;;;;;5085975;28;20379;-82
2022/11/10 01:54:10;;;;;;;22.75;5.07;;;8.70;99.90;;;;;;5082598;28;20501;-81
2022/11/10 01:56:41;;;;;;;32.15;5.60;;;8.60;99.90;;;;;;5086477;28;20043;-82
2022/11/10 01:59:12;;;;;;;29.38;5.80;;;8.80;99.90;;;;;;5101939;28;20133;-80
2022/11/10 02:01:38;;;;;;;32.22;6.00;;;8.80;99.90;;;;;;5069339;28;20072;-85
2022/11/10 02:04:07;;;;;;;30.17;5.68;;;8.80;99.90;;;;;;5088653;28;20486;-80
2022/11/10 02:06:36;;;;;;;21.23;6.05;;;8.80;99.90;;;;;;5085072;28;20153;-80
2022/11/10 02:09:02;;;;;;;25.95;5.95;;;8.70;99.90;;;;;;5086752;28;20502;-81
2022/11/10 02:11:29;;;;;;;30.23;6.15;;;8.70;99.90;;;;;;5071162;28;20078;-81
2022/11/10 02:13:55;;;;;;;28.33;6.32;;;8.60;99.90;;;;;;5103747;27;20035;-80
2022/11/10 02:16:22;;;;;;;25.40;6.57;;;8.70;99.90;;;;;;5068199;28;20044;-79
2022/11/10 02:18:48;;;;;;;34.60;6.60;;;8.80;99.90;;;;;;5077227;28;20039;-82
2022/11/10 02:21:18;;;;;;;36.83;6.72;;;8.90;99.90;;;;;;5071825;28;20386;-81
2022/11/10 02:23:46;;;;;;;33.63;6.28;;;8.70;99.90;;;;;;5103077;27;20036;-82
2022/11/10 02:26:14;;;;;;;24.00;5.63;;;8.80;99.90;;;;;;5069018;28;20044;-84
2022/11/10 02:28:40;;;;;;;30.60;6.10;;;8.70;99.90;;;;;;5119566;27;20043;-84
2022/11/10 02:31:08;;;;;;;31.40;6.55;;;8.80;99.90;;;;;;5087950;28;20114;-82
2022/11/10 02:33:34;;;;;;;31.80;6.63;;;8.70;99.90;;;;;;5088628;28;20490;-83
2022/11/10 02:36:00;;;;;;;27.42;6.47;;;8.90;99.90;;;;;;5099197;28;20533;-81
2022/11/10 02:38:26;;;;;;;37.30;6.85;;;8.80;99.90;;;;;;5083681;28;20044;-81
2022/11/10 02:40:51;;;;;;;33.15;6.82;;;8.80;99.90;;;;;;5062205;28;20032;-82
2022/11/10 02:43:18;;;;;;;30.83;6.40;;;8.80;99.90;;;;;;5082007;28;20040;-79
2022/11/10 02:45:44;;;;;;;39.33;7.30;;;8.80;99.90;;;;;;5061052;28;20059;-80
2022/11/10 02:48:12;;;;;;;29.25;6.40;;;8.80;99.90;;;;;;5111674;27;20044;-83
2022/11/10 02:50:39;;;;;;;27.70;6.45;;;8.80;99.90;;;;;;5079794;28;20042;-83
2022/11/10 02:53:08;;;;;;;30.67;7.00;;;8.80;99.90;;;;;;5111337;27;20241;-81
2022/11/10 02:55:33;;;;;;;35.65;6.45;;;8.80;99.90;;;;;;5083542;28;20049;-83
2022/11/10 02:57:59;;;;;;;25.02;6.10;;;8.70;99.90;;;;;;5058164;28;20106;-83
2022/11/10 03:00:26;;;;;;;33.40;6.60;;;8.70;99.90;;;;;;5083071;28;20028;-82
2022/11/10 03:03:03;;;;;;;34.72;7.03;;;8.60;99.90;;;;;;5066759;28;20032;-81
2022/11/10 03:05:31;;;;;;;26.67;6.57;;;8.70;99.90;;;;;;5109703;27;20059;-81
2022/11/10 03:07:59;;;;;;;22.25;6.18;;;8.70;99.90;;;;;;5096264;28;20040;-79
2022/11/10 03:10:26;;;;;;;24.13;6.63;;;8.60;99.90;;;;;;5077107;28;20078;-83
2022/11/10 03:13:00;;;;;;;29.48;6.97;;;8.80;99.90;;;;;;5067562;28;20044;-82
2022/11/10 03:15:26;;;;;;;36.80;6.53;;;8.90;99.90;;;;;;5097329;27;20511;-81
2022/11/10 03:17:53;;;;;;;33.30;6.53;;;8.70;99.90;;;;;;5079291;28;20113;-83
2022/11/10 03:20:19;;;;;;;29.40;6.40;;;8.80;99.90;;;;;;5113368;27;20147;-81
2022/11/10 03:22:45;;;;;;;31.92;6.53;;;8.80;99.90;;;;;;5065705;28;20135;-83
2022/11/10 03:25:11;;;;;;;31.88;6.88;;;8.60;99.90;;;;;;5085593;28;20040;-83
2022/11/10 03:27:38;;;;;;;34.40;6.55;;;8.80;99.90;;;;;;5062169;28;20100;-82
2022/11/10 03:30:05;;;;;;;33.60;6.75;;;8.60;99.90;;;;;;5094035;28;20040;-81
2022/11/10 03:32:31;;;;;;;40.40;7.18;;;8.80;99.90;;;;;;5082802;28;20036;-84
2022/11/10 03:34:57;;;;;;;27.88;6.57;;;8.60;99.90;;;;;;5118243;27;20040;-80
2022/11/10 03:37:23;;;;;;;28.13;6.82;;;8.80;99.90;;;;;;5084075;28;20036;-81
2022/11/10 03:39:49;;;;;;;25.65;6.18;;;8.70;99.90;;;;;;5069677;28;20047;-82
2022/11/10 03:42:15;;;;;;;29.83;6.20;;;8.80;99.90;;;;;;5107862;27;22418;-81
2022/11/10 03:44:41;;;;;;;34.25;6.40;;;8.70;99.90;;;;;;5082227;28;20399;-83
2022/11/10 03:47:08;;;;;;;30.13;6.50;;;8.80;99.90;;;;;;5082289;28;20044;-82
2022/11/10 03:49:33;;;;;;;27.88;6.53;;;8.80;99.90;;;;;;5097357;27;20471;-82
2022/11/10 03:51:59;;;;;;;31.92;6.45;;;8.50;99.90;;;;;;5079018;28;20093;-83
2022/11/10 03:54:24;;;;;;;32.38;6.32;;;8.70;99.90;;;;;;5060978;28;20094;-82
2022/11/10 03:56:51;;;;;;;34.35;6.65;;;8.70;99.90;;;;;;5060983;28;20375;-83
2022/11/10 03:59:16;;;;;;;26.95;5.88;;;8.60;99.90;;;;;;5079790;28;20340;-79
2022/11/10 04:01:42;;;;;;;28.38;6.45;;;8.80;99.90;;;;;;5077706;28;20097;-80
2022/11/10 04:08:57;;;;;;;37.60;6.13;;;8.60;99.90;;;;;;5083593;28;20039;-83
2022/11/10 04:09:39;;;;;;;29.25;6.70;;;8.50;99.90;;;;;;5079818;28;20042;-80
2022/11/10 04:17:34;;;;;;;28.35;6.03;;;8.70;99.90;;;;;;5076711;28;20087;-82
2022/11/10 04:20:02;;;;;;;33.17;6.25;;;8.70;99.90;;;;;;5080361;28;20115;-82
2022/11/10 04:25:14;;;;;;;27.23;6.38;;;8.60;99.90;;;;;;5077477;28;20062;-80
2022/11/10 04:27:42;;;;;;;32.28;6.78;;;8.80;99.90;;;;;;5074855;28;20048;-80
2022/11/10 04:30:08;;;;;;;43.15;6.85;;;8.60;99.90;;;;;;5057006;28;20071;-83
2022/11/10 04:32:33;;;;;;;34.10;6.38;;;8.80;99.90;;;;;;5085206;28;20050;-79
2022/11/10 04:34:59;;;;;;;27.88;6.07;;;8.80;99.90;;;;;;5101295;28;20040;-83
2022/11/10 04:37:25;;;;;;;42.00;7.50;;;8.70;99.90;;;;;;5068608;28;20036;-83
2022/11/10 04:39:50;;;;;;;40.33;6.95;;;8.80;99.90;;;;;;5114229;27;20367;-80
2022/11/10 04:42:16;;;;;;;37.10;7.25;;;8.70;99.90;;;;;;5113898;27;20415;-80
2022/11/10 04:44:41;;;;;;;31.17;6.88;;;9.00;99.90;;;;;;5077205;28;20045;-80
2022/11/10 04:47:07;;;;;;;38.10;7.40;;;9.00;99.90;;;;;;5069072;28;20040;-82
2022/11/10 04:49:33;;;;;;;43.95;7.53;;;9.00;99.90;;;;;;5111441;27;20048;-80
2022/11/10 04:51:58;;;;;;;41.55;7.80;;;9.00;99.90;;;;;;5081250;28;20036;-82
2022/11/10 04:54:24;;;;;;;41.17;8.63;;;9.10;99.90;;;;;;5083084;28;20047;-81
2022/11/10 04:56:56;;;;;;;30.63;7.38;;;8.90;99.90;;;;;;5080700;28;20104;-82
2022/11/10 04:59:21;;;;;;;41.35;8.45;;;8.90;99.90;;;;;;5115050;27;20369;-79
2022/11/10 05:01:47;;;;;;;38.83;7.47;;;9.10;99.90;;;;;;5083532;28;20058;-81
2022/11/10 05:04:13;;;;;;;26.13;6.72;;;9.10;99.90;;;;;;5082858;28;20036;-80
2022/11/10 05:06:38;;;;;;;41.00;7.28;;;9.00;99.90;;;;;;5082576;28;20032;-82
2022/11/10 05:09:07;;;;;;;35.75;7.85;;;9.30;99.90;;;;;;5085642;28;20036;-83
2022/11/10 05:11:32;;;;;;;37.78;7.78;;;9.30;99.90;;;;;;5078612;28;20582;-81
2022/11/10 05:13:58;;;;;;;33.13;6.97;;;9.20;99.90;;;;;;5066229;28;20068;-80
2022/11/10 05:16:26;;;;;;;47.83;7.95;;;9.20;99.90;;;;;;5100014;28;20139;-82
2022/11/10 05:18:54;;;;;;;38.83;7.20;;;9.20;99.90;;;;;;5083033;28;20056;-82
2022/11/10 05:21:20;;;;;;;41.05;8.10;;;9.40;99.90;;;;;;5114202;27;20067;-81
2022/11/10 05:23:46;;;;;;;40.47;7.28;;;9.20;99.90;;;;;;5087675;28;20074;-82
2022/11/10 05:26:15;;;;;;;33.67;6.90;;;9.20;99.90;;;;;;5079414;28;20044;-80
2022/11/10 05:28:43;;;;;;;35.65;6.93;;;9.30;99.90;;;;;;5113583;27;20466;-80
2022/11/10 05:31:10;;;;;;;31.20;6.90;;;9.30;99.90;;;;;;5079197;28;20146;-80
2022/11/10 05:33:36;;;;;;;38.58;6.97;;;9.20;99.90;;;;;;5115370;27;20039;-81
2022/11/10 05:36:05;;;;;;;43.25;6.97;;;9.20;99.90;;;;;;5100809;28;20552;-82
2022/11/10 05:38:32;;;;;;;37.45;6.95;;;9.40;99.90;;;;;;5079897;28;20055;-82
2022/11/10 05:40:58;;;;;;;32.85;6.75;;;9.30;99.90;;;;;;5078188;28;20114;-82
2022/11/10 05:43:24;;;;;;;41.25;7.15;;;9.20;99.90;;;;;;5065011;28;20154;-80
2022/11/10 05:45:50;;;;;;;43.83;7.18;;;9.20;99.90;;;;;;5097639;28;20056;-82
2022/11/10 05:48:15;;;;;;;38.00;6.85;;;9.30;99.90;;;;;;5077548;28;20043;-80
2022/11/10 05:50:42;;;;;;;35.75;6.32;;;9.20;99.90;;;;;;5076131;28;20067;-82
2022/11/10 05:53:08;;;;;;;40.75;7.00;;;9.10;99.90;;;;;;5063606;28;20051;-81
2022/11/10 05:55:35;;;;;;;40.47;6.40;;;9.20;99.90;;;;;;5069422;28;20040;-83
2022/11/10 05:58:01;;;;;;;30.85;5.93;;;9.20;99.90;;;;;;5084068;28;20079;-82
2022/11/10 06:00:28;;;;;;;33.78;5.50;;;9.20;99.90;;;;;;5084707;28;20124;-81
2022/11/10 06:03:22;;;;;;;35.55;6.20;;;9.20;99.90;;;;;;5103351;28;20059;-80
2022/11/10 06:05:47;;;;;;;40.50;6.18;;;9.20;99.90;;;;;;5087432;28;20503;-84
2022/11/10 06:08:16;;;;;;;40.10;5.88;;;9.10;99.90;;;;;;5121931;27;20071;-81
2022/11/10 06:10:42;;;;;;;40.33;6.43;;;9.20;99.90;;;;;;5079976;28;20040;-83
2022/11/10 06:13:09;;;;;;;35.70;5.78;;;9.20;99.90;;;;;;5078367;28;20051;-82
2022/11/10 06:15:35;;;;;;;37.88;5.95;;;9.40;99.90;;;;;;5068222;28;20052;-80
2022/11/10 06:18:01;;;;;;;38.25;6.00;;;9.10;99.90;;;;;;5081896;28;20063;-81
2022/11/10 06:20:29;;;;;;;38.58;6.13;;;9.20;99.90;;;;;;5081554;28;20056;-82
2022/11/10 06:23:06;;;;;;;44.47;6.03;;;9.20;99.90;;;;;;5085293;28;20032;-79
2022/11/10 06:25:34;;;;;;;49.78;6.15;;;9.30;99.90;;;;;;5113049;27;20043;-82
2022/11/10 06:28:00;;;;;;;51.28;6.00;;;9.30;99.90;;;;;;5087589;28;20040;-84
2022/11/10 06:30:26;;;;;;;37.83;5.20;;;9.40;99.90;;;;;;5114653;27;20151;-81
2022/11/10 06:32:53;;;;;;;37.42;5.63;;;9.50;99.90;;;;;;5084522;28;20048;-83
2022/11/10 06:35:21;;;;;;;28.42;5.45;;;9.30;99.90;;;;;;5078974;28;20045;-81
2022/11/10 06:38:02;;;;;;;41.55;5.78;;;9.40;99.90;;;;;;5081028;27;20104;-80
2022/11/10 06:40:29;;;;;;;36.53;5.85;;;9.50;99.90;;;;;;5097036;28;20032;-77
2022/11/10 06:42:55;;;;;;;40.10;5.93;;;9.30;99.90;;;;;;5074882;28;20036;-81
2022/11/10 06:45:21;;;;;;;37.20;5.50;;;9.50;99.90;;;;;;5047298;28;20055;-80
2022/11/10 06:47:47;;;;;;;36.65;6.15;;;9.30;99.90;;;;;;5063903;28;20058;-79
2022/11/10 06:50:13;;;;;;;38.38;6.53;;;9.30;99.90;;;;;;5115184;27;20419;-83
2022/11/10 06:52:39;;;;;;;39.53;5.90;;;9.40;99.90;;;;;;5113426;27;20046;-83
2022/11/10 06:55:05;;;;;;;35.47;6.03;;;9.40;99.90;;;;;;5063065;28;20036;-81
2022/11/10 06:57:40;;;;;;;49.30;6.50;;;9.40;99.90;;;;;;5094189;28;20056;-84
2022/11/10 07:00:06;;;;;;;35.60;5.95;;;9.40;99.90;;;;;;5062326;28;20044;-83
2022/11/10 07:02:32;;;;;;;48.20;6.78;;;9.60;99.90;;;;;;5078729;28;20055;-82
2022/11/10 07:04:57;;;;;;;33.45;5.93;;;9.70;99.90;;;;;;5062774;28;20039;-82
2022/11/10 07:07:23;;;;;;;45.45;5.85;;;9.60;99.90;;;;;;5062860;28;20333;-82
2022/11/10 07:09:49;;;;;;;40.15;6.38;;;9.80;99.90;;;;;;5060575;28;20048;-85
2022/11/10 07:12:14;;;;;;;39.90;5.93;;;9.80;99.90;;;;;;5064223;28;20499;-85
2022/11/10 07:14:40;;;;;;;48.90;5.75;;;9.50;99.90;;;;;;5113101;27;20117;-80
2022/11/10 07:17:06;;;;;;;53.13;6.50;;;9.70;99.90;;;;;;5082459;28;20047;-80
2022/11/10 07:19:32;;;;;;;42.53;6.18;;;9.80;99.90;;;;;;5067338;28;20050;-84
2022/11/10 07:21:58;;;;;;;34.92;6.15;;;9.70;99.90;;;;;;5085458;28;20044;-80
2022/11/10 07:24:23;;;;;;;33.30;6.28;;;10.00;99.90;;;;;;5083702;28;20085;-85
2022/11/10 07:26:49;;;;;;;42.35;5.78;;;9.90;99.90;;;;;;5064190;28;20056;-83
2022/11/10 07:29:15;;;;;;;34.67;5.75;;;10.00;99.90;;;;;;5081356;28;20047;-81
2022/11/10 07:31:40;;;;;;;32.15;5.20;;;9.70;99.90;;;;;;5075122;28;20044;-82
2022/11/10 07:34:06;;;;;;;37.30;5.68;;;9.80;99.90;;;;;;5080341;28;20038;-80
2022/11/10 07:36:31;;;;;;;30.67;5.05;;;9.90;99.90;;;;;;5076160;28;20044;-78
2022/11/10 07:38:57;;;;;;;39.70;5.88;;;9.70;99.90;;;;;;5096003;27;20168;-82
2022/11/10 07:41:23;;;;;;;39.83;5.65;;;9.70;99.90;;;;;;5063660;28;20048;-79
2022/11/10 07:43:50;;;;;;;43.80;5.75;;;9.60;99.90;;;;;;5063658;28;20036;-80
2022/11/10 07:46:15;;;;;;;34.65;5.32;;;9.60;99.90;;;;;;5078600;28;20131;-83
2022/11/10 07:48:41;;;;;;;40.58;5.75;;;9.90;99.90;;;;;;5078642;28;20123;-81
2022/11/10 07:51:06;;;;;;;34.33;5.10;;;9.70;99.90;;;;;;5067236;28;20083;-81
2022/11/10 07:53:32;;;;;;;36.38;5.47;;;9.70;99.90;;;;;;5079495;28;20192;-78
2022/11/10 07:55:59;;;;;;;43.97;5.80;;;9.70;99.90;;;;;;5080659;28;20155;-81
2022/11/10 07:58:24;;;;;;;36.08;5.35;;;9.70;99.90;;;;;;5063597;28;20380;-81
2022/11/10 08:00:50;;;;;;;46.60;6.25;;;9.90;99.90;;;;;;5080198;28;20043;-79
2022/11/10 08:03:18;;;;;;;29.00;5.22;;;9.70;99.90;;;;;;5080610;28;22095;-83
2022/11/10 08:05:44;;;;;;;30.77;5.43;;;9.70;99.90;;;;;;5075294;28;20088;-79
2022/11/10 08:08:10;;;;;;;32.67;5.60;;;9.90;99.90;;;;;;5077740;28;20040;-82
2022/11/10 08:10:37;;;;;;;39.40;6.22;;;9.90;99.90;;;;;;5096377;28;20047;-82
2022/11/10 08:13:05;;;;;;;44.45;5.80;;;9.90;99.90;;;;;;5062433;28;20061;-78
2022/11/10 08:15:32;;;;;;;40.80;5.65;;;9.90;99.90;;;;;;5075436;28;20080;-79
2022/11/10 08:18:03;;;;;;;36.83;5.20;;;10.10;99.90;;;;;;5097812;28;20414;-79
2022/11/10 08:20:32;;;;;;;38.47;6.28;;;10.20;99.90;;;;;;5080237;28;20068;-80
2022/11/10 08:23:03;;;;;;;30.70;5.55;;;10.30;99.90;;;;;;5075684;28;20139;-79
2022/11/10 08:25:30;;;;;;;33.35;5.70;;;10.30;99.90;;;;;;5065139;28;20497;-81
2022/11/10 08:28:07;;;;;;;30.60;5.38;;;10.40;99.90;;;;;;5087172;28;20340;-81
2022/11/10 08:30:35;;;;;;;40.72;6.28;;;10.30;99.90;;;;;;5062769;28;20051;-83
2022/11/10 08:33:03;;;;;;;38.88;6.13;;;10.50;99.90;;;;;;5085634;28;20052;-83
2022/11/10 08:35:33;;;;;;;35.33;6.35;;;10.60;99.90;;;;;;5079412;28;20483;-82
2022/11/10 08:38:13;;;;;;;42.03;6.22;;;10.50;99.90;;;;;;5063333;28;20397;-77
2022/11/10 08:40:40;;;;;;;44.22;6.90;;;10.50;99.90;;;;;;5074649;28;20055;-81
2022/11/10 08:43:06;;;;;;;29.38;5.97;;;10.70;99.90;;;;;;5079446;28;20123;-81
2022/11/10 08:45:37;;;;;;;39.03;6.55;;;10.60;99.90;;;;;;5081642;28;20056;-80
2022/11/10 08:48:17;;;;;;;36.92;6.07;;;10.80;99.90;;;;;;5099150;28;20056;-80
2022/11/10 08:50:43;;;;;;;35.05;5.82;;;10.60;99.90;;;;;;5071280;28;20050;-81
2022/11/10 08:53:12;;;;;;;28.92;5.15;;;10.60;99.90;;;;;;5099469;27;20151;-79
2022/11/10 08:55:39;;;;;;;39.40;5.65;;;10.60;99.90;;;;;;5085800;28;20046;-78
2022/11/10 08:58:05;;;;;;;37.10;5.78;;;11.00;99.90;;;;;;5068902;28;20055;-83
2022/11/10 09:00:32;;;;;;;32.38;5.32;;;10.90;99.90;;;;;;5086536;28;20091;-79
2022/11/10 09:03:15;;;;;;;41.00;5.95;;;10.80;99.90;;;;;;5089953;28;20419;-79
2022/11/10 09:05:42;;;;;;;32.78;5.13;;;10.90;99.90;;;;;;5086437;28;20040;-79
2022/11/10 09:08:08;;;;;;;27.05;5.28;;;11.00;99.90;;;;;;5085297;28;20077;-81
2022/11/10 09:10:37;;;;;;;37.08;5.78;;;11.10;99.90;;;;;;5084396;28;20119;-80
2022/11/10 09:13:03;;;;;;;38.78;5.82;;;11.20;99.90;;;;;;5086924;28;20039;-79
2022/11/10 09:15:30;;;;;;;29.33;5.78;;;11.10;99.90;;;;;;5099957;28;20105;-81
2022/11/10 09:18:00;;;;;;;31.55;6.30;;;11.20;99.90;;;;;;5065887;28;20650;-80
2022/11/10 09:20:27;;;;;;;30.83;5.00;;;11.30;99.90;;;;;;5067108;28;20054;-78
2022/11/10 09:22:53;;;;;;;37.42;5.57;;;11.30;99.90;;;;;;5086585;28;20067;-80
2022/11/10 09:25:19;;;;;;;40.33;6.45;;;11.30;99.90;;;;;;5057275;28;20051;-80
2022/11/10 09:27:45;;;;;;;31.17;5.38;;;11.50;99.90;;;;;;5074321;28;20134;-79
2022/11/10 09:30:11;;;;;;;31.45;5.60;;;11.60;99.90;;;;;;5070161;28;20098;-80
2022/11/10 09:32:36;;;;;;;33.33;6.07;;;11.50;99.90;;;;;;5090246;28;20040;-83
2022/11/10 09:35:03;;;;;;;39.85;6.22;;;11.50;99.90;;;;;;5076907;28;20058;-78
2022/11/10 09:37:29;;;;;;;31.27;6.28;;;11.50;99.90;;;;;;5092206;28;20051;-77
2022/11/10 09:39:54;;;;;;;29.80;6.18;;;11.70;99.90;;;;;;5089999;28;20035;-79
2022/11/10 09:42:33;;;;;;;37.13;6.63;;;11.80;99.90;;;;;;5091889;28;20447;-80
2022/11/10 09:45:24;;;;;;;29.30;6.97;;;11.90;99.90;;;;;;5094651;28;20044;-82
2022/11/10 09:48:15;;;;;;;32.60;7.53;;;11.90;99.90;;;;;;5124069;27;20052;-81
2022/11/10 09:50:47;;;;;;;34.10;7.07;;;11.90;99.90;;;;;;5075985;28;20463;-80
2022/11/10 09:53:22;;;;;;;34.97;7.20;;;11.70;99.90;;;;;;5075171;28;20134;-79
2022/11/10 09:55:51;;;;;;;;;;;11.70;99.90;;;;;;5077121;28;20127;-80
2022/11/10 09:58:20;;;;;;;34.45;8.38;;;11.90;99.90;;;;;;5090720;28;19916;-80
2022/11/10 10:01:02;;;;;;;38.15;8.45;;;11.80;99.90;;;;;;5091046;28;20109;-81
2022/11/10 10:03:30;;;;;;;38.42;8.98;;;11.90;99.90;;;;;;5094316;28;20040;-83
2022/11/10 10:06:22;;;;;;;37.53;8.95;;;11.90;99.90;;;;;;5091062;28;20215;-77
2022/11/10 10:09:04;;;;;;;40.88;8.73;;;11.90;99.90;;;;;;5052009;28;20048;-78
2022/11/10 10:11:51;;;;;;;29.85;7.82;;;12.10;99.90;;;;;;5080327;28;20154;-77
2022/11/10 10:14:27;;;;;;;32.97;7.85;;;12.20;99.90;;;;;;5085157;28;20056;-78
2022/11/10 10:17:16;;;;;;;37.75;7.72;;;12.10;99.90;;;;;;5075100;28;20051;-79
2022/11/10 10:20:16;;;;;;;35.03;8.32;;;12.30;99.90;;;;;;5069745;28;20475;-81
2022/11/10 10:23:03;;;;;;;30.70;6.88;;;12.30;99.90;;;;;;5091398;28;20059;-77
2022/11/10 10:25:31;;;;;;;28.88;7.38;;;12.20;99.90;;;;;;5074796;28;20055;-80
2022/11/10 10:28:03;;;;;;;31.67;6.68;;;12.40;99.90;;;;;;5089897;28;20123;-81
2022/11/10 10:30:30;;;;;;;29.38;7.25;;;12.30;99.90;;;;;;5092078;28;20043;-78
2022/11/10 10:33:20;;;;;;;30.17;7.13;;;12.10;99.90;;;;;;5087690;28;20139;-77
2022/11/10 10:35:48;;;;;;;28.55;7.18;;;12.10;99.90;;;;;;5087040;28;20092;-80
2022/11/10 10:38:38;;;;;;;32.28;6.88;;;12.10;99.90;;;;;;5110896;27;20128;-80
2022/11/10 10:41:24;;;;;;;34.45;6.93;;;12.20;99.90;;;;;;5084110;28;20365;-83
2022/11/10 10:43:53;;;;;;;38.63;7.40;;;12.20;99.90;;;;;;5070823;28;20044;-79
2022/11/10 10:46:25;;;;;;;37.67;7.50;;;12.40;99.90;;;;;;5068950;28;20051;-82
2022/11/10 10:49:35;;;;;;;33.72;6.70;;;12.50;99.90;;;;;;5113399;27;20086;-82
2022/11/10 10:52:03;;;;;;;32.05;6.68;;;12.40;99.90;;;;;;5083098;28;20048;-85
2022/11/10 10:54:35;;;;;;;29.70;6.60;;;12.70;99.90;;;;;;5049495;28;20179;-80
2022/11/10 10:57:21;;;;;;;33.40;7.20;;;12.70;99.90;;;;;;5082429;28;20833;-82
2022/11/10 10:59:47;;;;;;;28.98;6.88;;;12.70;99.90;;;;;;5078597;28;20173;-79
2022/11/10 11:02:21;;;;;;;32.65;7.05;;;12.60;99.90;;;;;;5084329;28;20086;-81
2022/11/10 11:04:48;;;;;;;28.40;6.38;;;12.60;99.90;;;;;;5115748;27;20511;-84
2022/11/10 11:07:24;;;;;;;30.45;7.07;;;12.80;99.90;;;;;;5083460;28;20032;-82
2022/11/10 11:09:50;;;;;;;29.30;6.65;;;12.70;99.90;;;;;;5087692;28;20085;-84
2022/11/10 11:12:19;;;;;;;30.85;6.18;;;12.60;99.90;;;;;;5072356;28;20047;-84
2022/11/10 11:14:45;;;;;;;27.13;6.13;;;12.70;99.90;;;;;;5069389;28;20075;-84
2022/11/10 11:17:18;;;;;;;28.80;6.28;;;12.90;99.90;;;;;;5070976;28;20045;-82
2022/11/10 11:19:44;;;;;;;34.08;6.00;;;12.70;99.90;;;;;;5079980;28;20048;-83
2022/11/10 11:22:25;;;;;;;27.70;5.65;;;12.70;99.90;;;;;;5064347;28;20044;-81
2022/11/10 11:25:28;;;;;;;28.80;5.97;;;12.90;99.90;;;;;;5083910;28;20084;-82
2022/11/10 11:28:09;;;;;;;29.00;5.75;;;12.80;99.90;;;;;;5056921;28;20055;-80
2022/11/10 11:31:15;;;;;;;33.00;5.60;;;12.80;99.90;;;;;;5074378;28;20052;-81
2022/11/10 11:34:18;;;;;;;30.30;5.47;;;12.90;99.90;;;;;;5108623;27;20867;-80
2022/11/10 11:36:55;;;;;;;28.85;5.40;;;12.90;99.90;;;;;;5079287;28;21392;-79
2022/11/10 11:39:50;;;;;;;23.10;4.90;;;12.80;99.90;;;;;;5072069;28;20060;-80
2022/11/10 11:42:27;;;;;;;29.13;5.30;;;12.70;99.90;;;;;;5062502;28;20076;-82
2022/11/10 11:45:23;;;;;;;32.85;5.80;;;12.80;99.90;;;;;;5093351;27;20066;-79
2022/11/10 11:48:06;;;;;;;31.08;5.35;;;12.80;99.90;;;;;;5081026;28;20138;-82
2022/11/10 11:50:49;;;;;;;28.27;5.50;;;13.10;99.90;;;;;;5082048;28;20069;-83
2022/11/10 11:53:31;;;;;;;29.95;4.63;;;13.20;99.90;;;;;;5067927;28;20032;-83
2022/11/10 11:56:18;;;;;;;25.52;4.70;;;13.20;99.90;;;;;;5087334;28;20072;-80
2022/11/10 11:58:55;;;;;;;26.13;5.07;;;13.00;99.90;;;;;;5064324;28;20055;-81
2022/11/10 12:02:01;;;;;;;29.63;4.72;;;13.00;99.90;;;;;;5098179;28;20140;-78
2022/11/10 12:04:52;;;;;;;31.48;4.93;;;13.20;99.90;;;;;;5089795;28;20093;-79
2022/11/10 12:07:44;;;;;;;40.38;5.05;;;13.10;99.90;;;;;;5061593;28;20058;-81
2022/11/10 12:10:44;;;;;;;25.58;3.72;;;13.20;99.90;;;;;;5085766;28;20032;-81
2022/11/10 12:13:35;;;;;;;24.55;4.30;;;13.20;99.90;;;;;;5081736;28;20056;-78
2022/11/10 12:16:00;;;;;;;28.77;4.10;;;13.10;99.90;;;;;;5110261;27;20032;-80
2022/11/10 12:19:00;;;;;;;28.65;3.92;;;13.30;99.90;;;;;;5079015;28;20514;-80
2022/11/10 12:21:52;;;;;;;27.80;4.40;;;13.20;99.90;;;;;;5096891;28;20044;-79
2022/11/10 12:24:51;;;;;;;22.23;3.47;;;13.30;99.90;;;;;;5079264;28;20044;-83
2022/11/10 12:27:48;;;;;;;27.63;4.55;;;13.30;99.90;;;;;;5083145;28;20032;-82
2022/11/10 12:30:16;;;;;;;30.15;4.60;;;13.30;99.90;;;;;;5114353;28;20056;-79
2022/11/10 12:32:51;;;;;;;28.23;3.85;;;13.40;99.90;;;;;;5086525;28;20135;-80
2022/11/10 12:35:24;;;;;;;24.10;4.13;;;13.30;99.90;;;;;;5081677;28;20173;-83
2022/11/10 12:38:15;;;;;;;27.65;4.30;;;13.40;99.90;;;;;;5085402;28;20091;-79
2022/11/10 12:41:00;;;;;;;21.42;3.67;;;13.40;99.90;;;;;;5058261;28;20046;-86
2022/11/10 12:43:40;;;;;;;30.92;4.20;;;13.40;99.90;;;;;;5063037;28;20055;-79
2022/11/10 12:46:10;;;;;;;30.70;3.80;;;13.30;99.90;;;;;;5072828;28;20056;-83
2022/11/10 12:48:55;;;;;;;27.15;4.18;;;13.30;99.90;;;;;;5070899;28;20067;-83
2022/11/10 12:51:52;;;;;;;28.75;4.45;;;13.40;99.90;;;;;;5072452;28;20048;-82
2022/11/10 12:54:20;;;;;;;26.35;3.70;;;13.20;99.90;;;;;;5067181;28;20067;-81
2022/11/10 12:56:57;;;;;;;27.48;3.85;;;13.40;99.90;;;;;;5102700;28;20067;-78
2022/11/10 12:59:37;;;;;;;23.90;4.25;;;13.20;99.90;;;;;;5092080;28;20043;-78
2022/11/10 13:02:20;;;;;;;29.20;4.22;;;13.30;99.90;;;;;;5103289;28;20044;-79
2022/11/10 13:05:12;;;;;;;24.63;3.13;;;13.40;99.90;;;;;;5077802;28;20050;-84
2022/11/10 13:07:39;;;;;;;21.75;3.90;;;13.30;99.90;;;;;;5079690;28;20395;-83
2022/11/10 13:10:22;;;;;;;20.75;3.63;;;13.20;99.90;;;;;;5084682;28;20047;-82
2022/11/10 13:13:03;;;;;;;25.98;3.72;;;13.40;99.90;;;;;;5065519;28;20055;-81
2022/11/10 13:15:38;;;;;;;25.83;3.40;;;13.20;99.90;;;;;;5081350;28;20040;-85